sensor_id;sensor_type;location;lat;lon;timestamp;P1;durP1;ratioP1;P2;durP2;ratioP2
62894;SDS011;49204;44.916;37.998;2023-03-16T00:00:35;40.08;;;25.55;;
62894;SDS011;49204;44.916;37.998;2023-03-16T00:03:04;35.43;;;16.50;;
62894;SDS011;49204;44.916;37.998;2023-03-16T00:05:32;31.97;;;15.63;;
62894;SDS011;49204;44.916;37.998;2023-03-16T00:08:01;33.80;;;18.92;;
62894;SDS011;49204;44.916;37.998;2023-03-16T00:10:30;31.50;;;16.60;;
62894;SDS011;49204;44.916;37.998;2023-03-16T00:12:58;29.48;;;14.43;;
62894;SDS011;49204;44.916;37.998;2023-03-16T00:15:28;43.38;;;14.58;;
62894;SDS011;49204;44.916;37.998;2023-03-16T00:17:56;29.10;;;14.05;;
62894;SDS011;49204;44.916;37.998;2023-03-16T00:20:25;29.12;;;13.62;;
62894;SDS011;49204;44.916;37.998;2023-03-16T00:22:54;30.30;;;18.48;;
62894;SDS011;49204;44.916;37.998;2023-03-16T00:25:22;34.18;;;17.45;;
62894;SDS011;49204;44.916;37.998;2023-03-16T00:27:51;35.38;;;22.27;;
62894;SDS011;49204;44.916;37.998;2023-03-16T00:30:19;45.92;;;28.05;;
62894;SDS011;49204;44.916;37.998;2023-03-16T00:32:48;40.67;;;31.87;;
62894;SDS011;49204;44.916;37.998;2023-03-16T00:35:18;57.15;;;40.10;;
62894;SDS011;49204;44.916;37.998;2023-03-16T00:37:47;55.55;;;26.62;;
62894;SDS011;49204;44.916;37.998;2023-03-16T00:40:17;40.17;;;27.52;;
62894;SDS011;49204;44.916;37.998;2023-03-16T00:42:45;54.80;;;28.50;;
62894;SDS011;49204;44.916;37.998;2023-03-16T00:45:14;42.03;;;30.82;;
62894;SDS011;49204;44.916;37.998;2023-03-16T00:47:43;50.43;;;35.83;;
62894;SDS011;49204;44.916;37.998;2023-03-16T00:50:12;46.30;;;31.02;;
62894;SDS011;49204;44.916;37.998;2023-03-16T00:52:41;59.23;;;42.17;;
62894;SDS011;49204;44.916;37.998;2023-03-16T00:55:10;38.00;;;28.75;;
62894;SDS011;49204;44.916;37.998;2023-03-16T00:57:39;56.90;;;37.65;;
62894;SDS011;49204;44.916;37.998;2023-03-16T01:00:08;68.65;;;46.75;;
62894;SDS011;49204;44.916;37.998;2023-03-16T01:02:42;77.37;;;53.75;;
62894;SDS011;49204;44.916;37.998;2023-03-16T01:05:14;57.45;;;41.90;;
62894;SDS011;49204;44.916;37.998;2023-03-16T01:07:43;49.45;;;29.77;;
62894;SDS011;49204;44.916;37.998;2023-03-16T01:10:13;56.95;;;34.58;;
62894;SDS011;49204;44.916;37.998;2023-03-16T01:12:42;46.08;;;28.62;;
62894;SDS011;49204;44.916;37.998;2023-03-16T01:15:11;56.37;;;42.80;;
62894;SDS011;49204;44.916;37.998;2023-03-16T01:17:40;49.05;;;34.25;;
62894;SDS011;49204;44.916;37.998;2023-03-16T01:20:09;57.20;;;44.20;;
62894;SDS011;49204;44.916;37.998;2023-03-16T01:22:38;48.95;;;32.88;;
62894;SDS011;49204;44.916;37.998;2023-03-16T01:25:09;66.02;;;46.20;;
62894;SDS011;49204;44.916;37.998;2023-03-16T01:27:40;57.53;;;45.48;;
62894;SDS011;49204;44.916;37.998;2023-03-16T01:30:10;62.45;;;47.88;;
62894;SDS011;49204;44.916;37.998;2023-03-16T01:32:39;74.15;;;49.63;;
62894;SDS011;49204;44.916;37.998;2023-03-16T01:35:08;57.67;;;38.92;;
62894;SDS011;49204;44.916;37.998;2023-03-16T01:37:37;92.35;;;57.60;;
62894;SDS011;49204;44.916;37.998;2023-03-16T01:40:09;73.30;;;49.63;;
62894;SDS011;49204;44.916;37.998;2023-03-16T01:42:43;56.13;;;42.30;;
62894;SDS011;49204;44.916;37.998;2023-03-16T01:48:19;91.08;;;70.12;;
62894;SDS011;49204;44.916;37.998;2023-03-16T01:50:51;76.67;;;54.93;;
62894;SDS011;49204;44.916;37.998;2023-03-16T01:53:22;76.33;;;57.53;;
62894;SDS011;49204;44.916;37.998;2023-03-16T01:55:52;102.10;;;69.20;;
62894;SDS011;49204;44.916;37.998;2023-03-16T01:58:21;82.60;;;59.58;;
62894;SDS011;49204;44.916;37.998;2023-03-16T02:00:49;96.32;;;65.08;;
62894;SDS011;49204;44.916;37.998;2023-03-16T02:03:20;64.07;;;40.50;;
62894;SDS011;49204;44.916;37.998;2023-03-16T02:05:58;78.95;;;53.63;;
62894;SDS011;49204;44.916;37.998;2023-03-16T02:08:42;152.68;;;110.50;;
62894;SDS011;49204;44.916;37.998;2023-03-16T02:11:13;92.92;;;61.70;;
62894;SDS011;49204;44.916;37.998;2023-03-16T02:13:52;93.92;;;63.25;;
62894;SDS011;49204;44.916;37.998;2023-03-16T02:16:24;114.17;;;74.10;;
62894;SDS011;49204;44.916;37.998;2023-03-16T02:18:53;34.55;;;14.47;;
62894;SDS011;49204;44.916;37.998;2023-03-16T02:21:26;36.03;;;14.98;;
62894;SDS011;49204;44.916;37.998;2023-03-16T02:23:54;26.97;;;12.82;;
62894;SDS011;49204;44.916;37.998;2023-03-16T02:26:36;63.55;;;36.85;;
62894;SDS011;49204;44.916;37.998;2023-03-16T02:32:08;34.92;;;15.08;;
62894;SDS011;49204;44.916;37.998;2023-03-16T02:34:39;44.55;;;19.48;;
62894;SDS011;49204;44.916;37.998;2023-03-16T02:37:10;36.68;;;16.48;;
62894;SDS011;49204;44.916;37.998;2023-03-16T02:39:39;39.48;;;18.52;;
62894;SDS011;49204;44.916;37.998;2023-03-16T02:42:11;41.88;;;17.82;;
62894;SDS011;49204;44.916;37.998;2023-03-16T02:44:42;32.60;;;16.80;;
62894;SDS011;49204;44.916;37.998;2023-03-16T02:50:10;28.67;;;16.67;;
62894;SDS011;49204;44.916;37.998;2023-03-16T02:52:40;28.57;;;18.27;;
62894;SDS011;49204;44.916;37.998;2023-03-16T02:55:09;37.80;;;19.15;;
62894;SDS011;49204;44.916;37.998;2023-03-16T02:57:38;39.10;;;15.85;;
62894;SDS011;49204;44.916;37.998;2023-03-16T03:00:09;28.20;;;14.13;;
62894;SDS011;49204;44.916;37.998;2023-03-16T03:02:40;33.13;;;13.55;;
62894;SDS011;49204;44.916;37.998;2023-03-16T03:05:10;28.62;;;15.25;;
62894;SDS011;49204;44.916;37.998;2023-03-16T03:07:39;29.70;;;14.07;;
62894;SDS011;49204;44.916;37.998;2023-03-16T03:10:09;27.67;;;13.60;;
62894;SDS011;49204;44.916;37.998;2023-03-16T03:12:37;30.77;;;13.30;;
62894;SDS011;49204;44.916;37.998;2023-03-16T03:15:07;31.15;;;14.00;;
62894;SDS011;49204;44.916;37.998;2023-03-16T03:17:39;22.00;;;13.68;;
62894;SDS011;49204;44.916;37.998;2023-03-16T03:20:09;27.90;;;13.00;;
62894;SDS011;49204;44.916;37.998;2023-03-16T03:22:50;36.88;;;14.30;;
62894;SDS011;49204;44.916;37.998;2023-03-16T03:25:18;34.58;;;14.58;;
62894;SDS011;49204;44.916;37.998;2023-03-16T03:27:50;30.05;;;14.05;;
62894;SDS011;49204;44.916;37.998;2023-03-16T03:30:22;30.85;;;15.03;;
62894;SDS011;49204;44.916;37.998;2023-03-16T03:32:51;29.67;;;14.25;;
62894;SDS011;49204;44.916;37.998;2023-03-16T03:35:20;42.80;;;25.88;;
62894;SDS011;49204;44.916;37.998;2023-03-16T03:37:49;34.00;;;18.12;;
62894;SDS011;49204;44.916;37.998;2023-03-16T03:40:19;32.95;;;17.48;;
62894;SDS011;49204;44.916;37.998;2023-03-16T03:42:49;30.68;;;15.15;;
62894;SDS011;49204;44.916;37.998;2023-03-16T03:45:18;33.20;;;15.38;;
62894;SDS011;49204;44.916;37.998;2023-03-16T03:47:47;30.57;;;16.48;;
62894;SDS011;49204;44.916;37.998;2023-03-16T03:50:18;30.05;;;15.63;;
62894;SDS011;49204;44.916;37.998;2023-03-16T03:52:54;28.60;;;14.73;;
62894;SDS011;49204;44.916;37.998;2023-03-16T03:55:24;24.65;;;13.53;;
62894;SDS011;49204;44.916;37.998;2023-03-16T03:57:53;26.90;;;14.03;;
62894;SDS011;49204;44.916;37.998;2023-03-16T04:00:22;36.25;;;14.70;;
62894;SDS011;49204;44.916;37.998;2023-03-16T04:02:50;30.80;;;14.70;;
62894;SDS011;49204;44.916;37.998;2023-03-16T04:05:20;31.62;;;13.45;;
62894;SDS011;49204;44.916;37.998;2023-03-16T04:07:51;39.25;;;17.85;;
62894;SDS011;49204;44.916;37.998;2023-03-16T04:10:24;27.05;;;14.70;;
62894;SDS011;49204;44.916;37.998;2023-03-16T04:12:55;40.75;;;17.90;;
62894;SDS011;49204;44.916;37.998;2023-03-16T04:15:26;32.48;;;16.75;;
62894;SDS011;49204;44.916;37.998;2023-03-16T04:18:00;34.10;;;18.02;;
62894;SDS011;49204;44.916;37.998;2023-03-16T04:20:29;37.50;;;16.73;;
62894;SDS011;49204;44.916;37.998;2023-03-16T04:22:58;32.70;;;14.05;;
62894;SDS011;49204;44.916;37.998;2023-03-16T04:25:27;34.27;;;17.10;;
62894;SDS011;49204;44.916;37.998;2023-03-16T04:27:57;33.30;;;15.50;;
62894;SDS011;49204;44.916;37.998;2023-03-16T04:30:27;34.33;;;12.85;;
62894;SDS011;49204;44.916;37.998;2023-03-16T04:32:57;28.55;;;12.90;;
62894;SDS011;49204;44.916;37.998;2023-03-16T04:35:26;35.88;;;13.32;;
62894;SDS011;49204;44.916;37.998;2023-03-16T04:37:55;35.43;;;13.13;;
62894;SDS011;49204;44.916;37.998;2023-03-16T04:40:25;34.90;;;14.20;;
62894;SDS011;49204;44.916;37.998;2023-03-16T04:42:57;37.20;;;13.35;;
62894;SDS011;49204;44.916;37.998;2023-03-16T04:45:26;29.92;;;12.58;;
62894;SDS011;49204;44.916;37.998;2023-03-16T04:47:55;27.27;;;12.80;;
62894;SDS011;49204;44.916;37.998;2023-03-16T04:50:24;31.93;;;14.10;;
62894;SDS011;49204;44.916;37.998;2023-03-16T04:52:53;33.80;;;12.78;;
62894;SDS011;49204;44.916;37.998;2023-03-16T04:55:22;37.13;;;14.05;;
62894;SDS011;49204;44.916;37.998;2023-03-16T04:57:51;38.88;;;15.13;;
62894;SDS011;49204;44.916;37.998;2023-03-16T05:00:20;27.30;;;13.98;;
62894;SDS011;49204;44.916;37.998;2023-03-16T05:02:51;27.65;;;13.58;;
62894;SDS011;49204;44.916;37.998;2023-03-16T05:05:21;29.65;;;11.55;;
62894;SDS011;49204;44.916;37.998;2023-03-16T05:07:50;42.67;;;15.63;;
62894;SDS011;49204;44.916;37.998;2023-03-16T05:10:19;44.55;;;14.85;;
62894;SDS011;49204;44.916;37.998;2023-03-16T05:12:47;58.28;;;15.15;;
62894;SDS011;49204;44.916;37.998;2023-03-16T05:15:17;36.55;;;14.13;;
62894;SDS011;49204;44.916;37.998;2023-03-16T05:17:48;36.65;;;14.33;;
62894;SDS011;49204;44.916;37.998;2023-03-16T05:20:17;32.03;;;13.18;;
62894;SDS011;49204;44.916;37.998;2023-03-16T05:22:49;31.25;;;14.43;;
62894;SDS011;49204;44.916;37.998;2023-03-16T05:25:20;36.30;;;13.95;;
62894;SDS011;49204;44.916;37.998;2023-03-16T05:27:50;40.73;;;15.18;;
62894;SDS011;49204;44.916;37.998;2023-03-16T05:30:30;52.98;;;16.90;;
62894;SDS011;49204;44.916;37.998;2023-03-16T05:33:00;46.53;;;15.75;;
62894;SDS011;49204;44.916;37.998;2023-03-16T05:35:29;53.10;;;16.85;;
62894;SDS011;49204;44.916;37.998;2023-03-16T05:37:59;46.37;;;16.32;;
62894;SDS011;49204;44.916;37.998;2023-03-16T05:40:28;33.10;;;15.45;;
62894;SDS011;49204;44.916;37.998;2023-03-16T05:43:00;37.80;;;14.68;;
62894;SDS011;49204;44.916;37.998;2023-03-16T05:45:30;37.67;;;14.95;;
62894;SDS011;49204;44.916;37.998;2023-03-16T05:48:01;40.15;;;15.60;;
62894;SDS011;49204;44.916;37.998;2023-03-16T05:50:32;38.45;;;15.30;;
62894;SDS011;49204;44.916;37.998;2023-03-16T05:53:00;58.73;;;15.35;;
62894;SDS011;49204;44.916;37.998;2023-03-16T05:55:29;32.98;;;15.03;;
62894;SDS011;49204;44.916;37.998;2023-03-16T05:57:59;61.95;;;16.77;;
62894;SDS011;49204;44.916;37.998;2023-03-16T06:00:28;50.03;;;18.32;;
62894;SDS011;49204;44.916;37.998;2023-03-16T06:05:31;55.30;;;15.20;;
62894;SDS011;49204;44.916;37.998;2023-03-16T06:08:00;37.67;;;14.58;;
62894;SDS011;49204;44.916;37.998;2023-03-16T06:10:30;45.17;;;16.25;;
62894;SDS011;49204;44.916;37.998;2023-03-16T06:12:59;40.90;;;16.05;;
62894;SDS011;49204;44.916;37.998;2023-03-16T06:15:27;51.98;;;17.17;;
62894;SDS011;49204;44.916;37.998;2023-03-16T06:17:57;40.58;;;15.72;;
62894;SDS011;49204;44.916;37.998;2023-03-16T06:20:26;51.60;;;17.60;;
62894;SDS011;49204;44.916;37.998;2023-03-16T06:22:55;44.25;;;15.88;;
62894;SDS011;49204;44.916;37.998;2023-03-16T06:25:25;62.25;;;17.65;;
62894;SDS011;49204;44.916;37.998;2023-03-16T06:27:54;45.70;;;16.65;;
62894;SDS011;49204;44.916;37.998;2023-03-16T06:30:23;41.65;;;16.82;;
62894;SDS011;49204;44.916;37.998;2023-03-16T06:32:52;52.03;;;18.15;;
62894;SDS011;49204;44.916;37.998;2023-03-16T06:35:21;42.85;;;18.35;;
62894;SDS011;49204;44.916;37.998;2023-03-16T06:37:52;42.60;;;17.20;;
62894;SDS011;49204;44.916;37.998;2023-03-16T06:40:25;49.42;;;17.50;;
62894;SDS011;49204;44.916;37.998;2023-03-16T06:42:54;46.05;;;16.45;;
62894;SDS011;49204;44.916;37.998;2023-03-16T06:45:23;41.13;;;15.48;;
62894;SDS011;49204;44.916;37.998;2023-03-16T06:47:53;61.13;;;18.40;;
62894;SDS011;49204;44.916;37.998;2023-03-16T06:50:23;42.67;;;15.85;;
62894;SDS011;49204;44.916;37.998;2023-03-16T06:52:52;47.48;;;16.57;;
62894;SDS011;49204;44.916;37.998;2023-03-16T06:55:20;57.00;;;18.50;;
62894;SDS011;49204;44.916;37.998;2023-03-16T06:57:49;65.37;;;21.20;;
62894;SDS011;49204;44.916;37.998;2023-03-16T07:00:18;78.50;;;23.92;;
62894;SDS011;49204;44.916;37.998;2023-03-16T07:02:47;87.97;;;28.62;;
62894;SDS011;49204;44.916;37.998;2023-03-16T07:05:16;58.50;;;21.90;;
62894;SDS011;49204;44.916;37.998;2023-03-16T07:07:45;56.30;;;17.02;;
62894;SDS011;49204;44.916;37.998;2023-03-16T07:10:15;56.92;;;19.05;;
62894;SDS011;49204;44.916;37.998;2023-03-16T07:12:45;53.55;;;17.40;;
62894;SDS011;49204;44.916;37.998;2023-03-16T07:15:13;36.25;;;16.05;;
62894;SDS011;49204;44.916;37.998;2023-03-16T07:17:42;42.93;;;17.23;;
62894;SDS011;49204;44.916;37.998;2023-03-16T07:20:11;53.55;;;17.67;;
62894;SDS011;49204;44.916;37.998;2023-03-16T07:22:41;48.65;;;16.55;;
62894;SDS011;49204;44.916;37.998;2023-03-16T07:25:11;53.50;;;17.67;;
62894;SDS011;49204;44.916;37.998;2023-03-16T07:27:41;58.78;;;17.23;;
62894;SDS011;49204;44.916;37.998;2023-03-16T07:30:12;47.78;;;17.98;;
62894;SDS011;49204;44.916;37.998;2023-03-16T07:32:43;35.88;;;15.70;;
62894;SDS011;49204;44.916;37.998;2023-03-16T07:35:11;48.38;;;16.82;;
62894;SDS011;49204;44.916;37.998;2023-03-16T07:37:40;46.55;;;16.00;;
62894;SDS011;49204;44.916;37.998;2023-03-16T07:40:09;58.87;;;23.10;;
62894;SDS011;49204;44.916;37.998;2023-03-16T07:42:39;41.42;;;16.20;;
62894;SDS011;49204;44.916;37.998;2023-03-16T07:45:10;36.05;;;16.57;;
62894;SDS011;49204;44.916;37.998;2023-03-16T07:47:40;42.48;;;16.52;;
62894;SDS011;49204;44.916;37.998;2023-03-16T07:50:10;52.03;;;18.07;;
62894;SDS011;49204;44.916;37.998;2023-03-16T07:52:42;46.45;;;17.73;;
62894;SDS011;49204;44.916;37.998;2023-03-16T07:55:12;51.23;;;19.23;;
62894;SDS011;49204;44.916;37.998;2023-03-16T07:57:42;51.08;;;19.45;;
62894;SDS011;49204;44.916;37.998;2023-03-16T08:00:13;49.50;;;21.40;;
62894;SDS011;49204;44.916;37.998;2023-03-16T08:02:42;57.05;;;21.23;;
62894;SDS011;49204;44.916;37.998;2023-03-16T08:05:12;39.58;;;18.23;;
62894;SDS011;49204;44.916;37.998;2023-03-16T08:07:43;59.73;;;22.95;;
62894;SDS011;49204;44.916;37.998;2023-03-16T08:10:13;49.40;;;20.57;;
62894;SDS011;49204;44.916;37.998;2023-03-16T08:12:46;54.85;;;21.65;;
62894;SDS011;49204;44.916;37.998;2023-03-16T08:15:15;43.08;;;18.50;;
62894;SDS011;49204;44.916;37.998;2023-03-16T08:17:45;43.42;;;19.65;;
62894;SDS011;49204;44.916;37.998;2023-03-16T08:20:18;47.40;;;21.20;;
62894;SDS011;49204;44.916;37.998;2023-03-16T08:22:47;37.73;;;18.07;;
62894;SDS011;49204;44.916;37.998;2023-03-16T08:25:18;30.35;;;13.90;;
62894;SDS011;49204;44.916;37.998;2023-03-16T08:27:49;20.72;;;9.90;;
62894;SDS011;49204;44.916;37.998;2023-03-16T08:30:19;14.98;;;7.92;;
62894;SDS011;49204;44.916;37.998;2023-03-16T08:32:49;11.25;;;6.55;;
62894;SDS011;49204;44.916;37.998;2023-03-16T08:35:18;12.75;;;5.95;;
62894;SDS011;49204;44.916;37.998;2023-03-16T08:37:47;12.47;;;6.28;;
62894;SDS011;49204;44.916;37.998;2023-03-16T08:40:16;10.38;;;5.40;;
62894;SDS011;49204;44.916;37.998;2023-03-16T08:42:47;17.65;;;6.78;;
62894;SDS011;49204;44.916;37.998;2023-03-16T08:45:17;9.38;;;4.75;;
62894;SDS011;49204;44.916;37.998;2023-03-16T08:47:46;13.48;;;5.55;;
62894;SDS011;49204;44.916;37.998;2023-03-16T08:50:16;12.65;;;5.37;;
62894;SDS011;49204;44.916;37.998;2023-03-16T08:52:45;10.50;;;4.40;;
62894;SDS011;49204;44.916;37.998;2023-03-16T08:55:18;11.85;;;5.40;;
62894;SDS011;49204;44.916;37.998;2023-03-16T08:57:46;10.88;;;5.53;;
62894;SDS011;49204;44.916;37.998;2023-03-16T09:00:15;8.43;;;4.70;;
62894;SDS011;49204;44.916;37.998;2023-03-16T09:02:46;13.13;;;5.05;;
62894;SDS011;49204;44.916;37.998;2023-03-16T09:05:14;9.15;;;4.80;;
62894;SDS011;49204;44.916;37.998;2023-03-16T09:07:43;12.40;;;5.92;;
62894;SDS011;49204;44.916;37.998;2023-03-16T09:10:12;11.28;;;5.12;;
62894;SDS011;49204;44.916;37.998;2023-03-16T09:12:42;10.43;;;6.22;;
62894;SDS011;49204;44.916;37.998;2023-03-16T09:15:11;11.15;;;5.47;;
62894;SDS011;49204;44.916;37.998;2023-03-16T09:17:40;8.98;;;4.92;;
62894;SDS011;49204;44.916;37.998;2023-03-16T09:20:11;10.08;;;6.25;;
62894;SDS011;49204;44.916;37.998;2023-03-16T09:22:41;12.05;;;5.90;;
62894;SDS011;49204;44.916;37.998;2023-03-16T09:25:09;9.10;;;4.97;;
62894;SDS011;49204;44.916;37.998;2023-03-16T09:27:38;8.38;;;5.58;;
62894;SDS011;49204;44.916;37.998;2023-03-16T09:30:08;13.43;;;5.95;;
62894;SDS011;49204;44.916;37.998;2023-03-16T09:32:38;10.63;;;5.55;;
62894;SDS011;49204;44.916;37.998;2023-03-16T09:35:07;12.70;;;6.08;;
62894;SDS011;49204;44.916;37.998;2023-03-16T09:37:37;8.53;;;5.75;;
62894;SDS011;49204;44.916;37.998;2023-03-16T09:40:06;10.93;;;4.87;;
62894;SDS011;49204;44.916;37.998;2023-03-16T09:42:37;13.32;;;6.40;;
62894;SDS011;49204;44.916;37.998;2023-03-16T09:48:04;17.70;;;13.03;;
62894;SDS011;49204;44.916;37.998;2023-03-16T09:50:36;7.70;;;4.42;;
62894;SDS011;49204;44.916;37.998;2023-03-16T09:53:15;11.88;;;6.00;;
62894;SDS011;49204;44.916;37.998;2023-03-16T09:55:52;13.22;;;7.92;;
62894;SDS011;49204;44.916;37.998;2023-03-16T09:58:23;11.43;;;6.30;;
62894;SDS011;49204;44.916;37.998;2023-03-16T10:03:53;8.60;;;5.47;;
62894;SDS011;49204;44.916;37.998;2023-03-16T10:06:43;7.65;;;4.28;;
62894;SDS011;49204;44.916;37.998;2023-03-16T10:09:20;9.00;;;4.62;;
62894;SDS011;49204;44.916;37.998;2023-03-16T10:11:46;7.42;;;5.72;;
62894;SDS011;49204;44.916;37.998;2023-03-16T10:20:10;11.25;;;4.85;;
62894;SDS011;49204;44.916;37.998;2023-03-16T10:22:36;7.65;;;4.62;;
62894;SDS011;49204;44.916;37.998;2023-03-16T10:27:44;9.43;;;4.80;;
62894;SDS011;49204;44.916;37.998;2023-03-16T10:32:48;8.68;;;5.37;;
62894;SDS011;49204;44.916;37.998;2023-03-16T10:35:24;9.43;;;4.85;;
62894;SDS011;49204;44.916;37.998;2023-03-16T10:38:06;7.72;;;4.30;;
62894;SDS011;49204;44.916;37.998;2023-03-16T10:40:37;9.90;;;5.05;;
62894;SDS011;49204;44.916;37.998;2023-03-16T10:43:10;7.62;;;4.58;;
62894;SDS011;49204;44.916;37.998;2023-03-16T10:45:41;8.48;;;4.03;;
62894;SDS011;49204;44.916;37.998;2023-03-16T10:48:17;8.40;;;4.20;;
62894;SDS011;49204;44.916;37.998;2023-03-16T10:50:49;8.15;;;4.62;;
62894;SDS011;49204;44.916;37.998;2023-03-16T10:53:24;6.05;;;4.40;;
62894;SDS011;49204;44.916;37.998;2023-03-16T10:55:58;6.95;;;4.37;;
62894;SDS011;49204;44.916;37.998;2023-03-16T10:58:29;8.90;;;5.15;;
62894;SDS011;49204;44.916;37.998;2023-03-16T11:00:59;9.38;;;5.80;;
62894;SDS011;49204;44.916;37.998;2023-03-16T11:03:37;8.35;;;5.00;;
62894;SDS011;49204;44.916;37.998;2023-03-16T11:06:16;7.90;;;4.60;;
62894;SDS011;49204;44.916;37.998;2023-03-16T11:08:46;10.23;;;5.33;;
62894;SDS011;49204;44.916;37.998;2023-03-16T11:11:32;7.65;;;5.15;;
62894;SDS011;49204;44.916;37.998;2023-03-16T11:14:00;8.65;;;6.55;;
62894;SDS011;49204;44.916;37.998;2023-03-16T11:16:33;7.55;;;4.40;;
62894;SDS011;49204;44.916;37.998;2023-03-16T11:19:11;8.88;;;5.35;;
62894;SDS011;49204;44.916;37.998;2023-03-16T11:24:58;8.33;;;5.03;;
62894;SDS011;49204;44.916;37.998;2023-03-16T11:27:42;11.05;;;5.60;;
62894;SDS011;49204;44.916;37.998;2023-03-16T11:30:18;7.95;;;5.05;;
62894;SDS011;49204;44.916;37.998;2023-03-16T11:32:50;8.93;;;4.25;;
62894;SDS011;49204;44.916;37.998;2023-03-16T11:40:54;8.40;;;5.70;;
62894;SDS011;49204;44.916;37.998;2023-03-16T11:46:24;16.87;;;9.28;;
62894;SDS011;49204;44.916;37.998;2023-03-16T11:48:59;13.80;;;7.03;;
62894;SDS011;49204;44.916;37.998;2023-03-16T11:51:31;12.65;;;6.62;;
62894;SDS011;49204;44.916;37.998;2023-03-16T11:57:02;6.53;;;4.10;;
62894;SDS011;49204;44.916;37.998;2023-03-16T12:02:35;10.15;;;5.75;;
62894;SDS011;49204;44.916;37.998;2023-03-16T12:05:22;14.40;;;5.92;;
62894;SDS011;49204;44.916;37.998;2023-03-16T12:08:17;9.40;;;5.83;;
62894;SDS011;49204;44.916;37.998;2023-03-16T12:11:02;11.25;;;4.58;;
62894;SDS011;49204;44.916;37.998;2023-03-16T12:16:14;9.23;;;5.25;;
62894;SDS011;49204;44.916;37.998;2023-03-16T12:18:53;9.25;;;5.00;;
62894;SDS011;49204;44.916;37.998;2023-03-16T12:21:30;10.88;;;5.85;;
62894;SDS011;49204;44.916;37.998;2023-03-16T12:23:59;12.50;;;5.55;;
62894;SDS011;49204;44.916;37.998;2023-03-16T12:26:34;8.28;;;5.25;;
62894;SDS011;49204;44.916;37.998;2023-03-16T12:29:13;11.65;;;6.70;;
62894;SDS011;49204;44.916;37.998;2023-03-16T12:31:46;12.18;;;6.05;;
62894;SDS011;49204;44.916;37.998;2023-03-16T12:36:51;10.25;;;6.85;;
62894;SDS011;49204;44.916;37.998;2023-03-16T12:42:34;13.95;;;6.80;;
62894;SDS011;49204;44.916;37.998;2023-03-16T12:45:02;6.08;;;4.05;;
62894;SDS011;49204;44.916;37.998;2023-03-16T12:47:32;13.43;;;6.10;;
62894;SDS011;49204;44.916;37.998;2023-03-16T12:52:41;12.88;;;5.62;;
62894;SDS011;49204;44.916;37.998;2023-03-16T12:55:13;11.33;;;5.95;;
62894;SDS011;49204;44.916;37.998;2023-03-16T12:58:00;10.45;;;4.85;;
62894;SDS011;49204;44.916;37.998;2023-03-16T13:00:41;10.93;;;4.37;;
62894;SDS011;49204;44.916;37.998;2023-03-16T13:03:11;11.33;;;7.40;;
62894;SDS011;49204;44.916;37.998;2023-03-16T13:05:51;9.78;;;5.83;;
62894;SDS011;49204;44.916;37.998;2023-03-16T13:08:21;11.93;;;5.28;;
62894;SDS011;49204;44.916;37.998;2023-03-16T13:11:00;8.13;;;5.03;;
62894;SDS011;49204;44.916;37.998;2023-03-16T13:13:31;10.85;;;6.50;;
62894;SDS011;49204;44.916;37.998;2023-03-16T13:16:07;14.65;;;8.08;;
62894;SDS011;49204;44.916;37.998;2023-03-16T13:18:41;13.95;;;7.20;;
62894;SDS011;49204;44.916;37.998;2023-03-16T13:21:14;11.70;;;6.75;;
62894;SDS011;49204;44.916;37.998;2023-03-16T13:23:52;15.28;;;8.00;;
62894;SDS011;49204;44.916;37.998;2023-03-16T13:29:23;10.25;;;7.90;;
62894;SDS011;49204;44.916;37.998;2023-03-16T13:32:06;9.15;;;4.87;;
62894;SDS011;49204;44.916;37.998;2023-03-16T13:34:45;14.70;;;8.48;;
62894;SDS011;49204;44.916;37.998;2023-03-16T13:37:12;10.18;;;4.75;;
62894;SDS011;49204;44.916;37.998;2023-03-16T13:39:49;13.38;;;7.15;;
62894;SDS011;49204;44.916;37.998;2023-03-16T13:42:24;11.28;;;6.20;;
62894;SDS011;49204;44.916;37.998;2023-03-16T13:44:58;14.70;;;5.85;;
62894;SDS011;49204;44.916;37.998;2023-03-16T13:50:11;10.25;;;5.03;;
62894;SDS011;49204;44.916;37.998;2023-03-16T13:52:41;14.30;;;8.18;;
62894;SDS011;49204;44.916;37.998;2023-03-16T13:55:15;16.00;;;8.18;;
62894;SDS011;49204;44.916;37.998;2023-03-16T13:57:46;11.88;;;5.90;;
62894;SDS011;49204;44.916;37.998;2023-03-16T14:02:54;12.50;;;7.20;;
62894;SDS011;49204;44.916;37.998;2023-03-16T14:07:56;11.80;;;5.92;;
62894;SDS011;49204;44.916;37.998;2023-03-16T14:10:33;10.80;;;5.92;;
62894;SDS011;49204;44.916;37.998;2023-03-16T14:13:07;14.43;;;6.67;;
62894;SDS011;49204;44.916;37.998;2023-03-16T14:15:38;12.73;;;7.15;;
62894;SDS011;49204;44.916;37.998;2023-03-16T14:18:14;14.60;;;6.90;;
62894;SDS011;49204;44.916;37.998;2023-03-16T14:20:46;14.28;;;5.70;;
62894;SDS011;49204;44.916;37.998;2023-03-16T14:23:21;17.15;;;8.78;;
62894;SDS011;49204;44.916;37.998;2023-03-16T14:25:51;16.97;;;10.13;;
62894;SDS011;49204;44.916;37.998;2023-03-16T14:28:26;16.82;;;8.20;;
62894;SDS011;49204;44.916;37.998;2023-03-16T14:31:07;19.20;;;8.70;;
62894;SDS011;49204;44.916;37.998;2023-03-16T14:33:32;23.38;;;7.62;;
62894;SDS011;49204;44.916;37.998;2023-03-16T14:36:09;19.48;;;10.63;;
62894;SDS011;49204;44.916;37.998;2023-03-16T14:38:46;25.80;;;14.73;;
62894;SDS011;49204;44.916;37.998;2023-03-16T14:41:19;11.68;;;9.13;;
62894;SDS011;49204;44.916;37.998;2023-03-16T14:43:56;15.72;;;7.35;;
62894;SDS011;49204;44.916;37.998;2023-03-16T14:46:25;17.48;;;8.15;;
62894;SDS011;49204;44.916;37.998;2023-03-16T14:49:02;21.02;;;15.32;;
62894;SDS011;49204;44.916;37.998;2023-03-16T14:51:37;20.52;;;14.75;;
62894;SDS011;49204;44.916;37.998;2023-03-16T14:54:14;15.70;;;12.53;;
62894;SDS011;49204;44.916;37.998;2023-03-16T14:56:48;22.52;;;11.65;;
62894;SDS011;49204;44.916;37.998;2023-03-16T14:59:19;17.27;;;10.70;;
62894;SDS011;49204;44.916;37.998;2023-03-16T15:01:48;11.43;;;6.42;;
62894;SDS011;49204;44.916;37.998;2023-03-16T15:04:23;28.25;;;12.18;;
62894;SDS011;49204;44.916;37.998;2023-03-16T15:06:50;16.75;;;8.83;;
62894;SDS011;49204;44.916;37.998;2023-03-16T15:11:54;20.75;;;9.08;;
62894;SDS011;49204;44.916;37.998;2023-03-16T15:14:23;19.80;;;8.20;;
62894;SDS011;49204;44.916;37.998;2023-03-16T15:17:10;27.90;;;9.68;;
62894;SDS011;49204;44.916;37.998;2023-03-16T15:19:39;37.70;;;14.73;;
62894;SDS011;49204;44.916;37.998;2023-03-16T15:22:08;44.95;;;15.23;;
62894;SDS011;49204;44.916;37.998;2023-03-16T15:24:38;36.17;;;13.60;;
62894;SDS011;49204;44.916;37.998;2023-03-16T15:27:18;28.07;;;11.60;;
62894;SDS011;49204;44.916;37.998;2023-03-16T15:29:48;50.55;;;21.52;;
62894;SDS011;49204;44.916;37.998;2023-03-16T15:32:17;69.15;;;24.37;;
62894;SDS011;49204;44.916;37.998;2023-03-16T15:34:46;30.68;;;14.35;;
62894;SDS011;49204;44.916;37.998;2023-03-16T15:37:15;21.70;;;8.53;;
62894;SDS011;49204;44.916;37.998;2023-03-16T15:39:46;21.60;;;9.30;;
62894;SDS011;49204;44.916;37.998;2023-03-16T15:42:15;19.15;;;8.68;;
62894;SDS011;49204;44.916;37.998;2023-03-16T15:44:45;20.77;;;8.85;;
62894;SDS011;49204;44.916;37.998;2023-03-16T15:47:14;17.52;;;8.48;;
62894;SDS011;49204;44.916;37.998;2023-03-16T15:49:43;15.60;;;8.03;;